PWSweather.com
Personal Weather Stations
Station Observations
KCOGRAND2
Redlands, Southcamp Road & Dakota Circle, Grand Junction, CO 81507

Redlands, Southcamp Road & Dakota CircleGrand Junction, CO 81507

Lat: 39.055, Lon: -108.637

Elevation: 4870

Station Type: RadioShack WX200

High Low Average
Temperature 59.5°F15.3°C 36.5°F2.5°C 42.8°F6.0°C
Dew Point 40.5°F4.7°C 4.1°F-15.5°C 33.5°F0.8°C
Winds 17.0 mph 27.4 kmh 1.0 mph 1.6 kmh 9.0 mph W14.5 kmh W
Wind Gusts 29.1 mph46.8 kmh 4.9 mph7.9 kmh 14.0 mph22.5 kmh
Humidity 100% 12% 76%
Pressure 24.77 in838.8 mb 24.57 in832.0 mb -
Precipitation 0.00 in0.0 mm - -
Hour Temp Dew Point Humidity Winds Wind Gusts Pressure Precip Precip Rate Daily Precip Total
12:04 AM 59.5°F15.3°C -5537.2°C - 12.0 mph S19.3 kmh S 29.1 mph46.8 kmh 24.60 in833.1 mb 0.00 in0.0 mm 0.00 in/hr0.0 mm/hr 0.00 in0.0 mm
12:09 AM 59.5°F15.3°C -5537.2°C - 13.0 mph S20.9 kmh S 18.6 mph29.9 kmh 24.60 in833.1 mb 0.00 in0.0 mm 0.00 in/hr0.0 mm/hr 0.00 in0.0 mm
12:14 AM 59.4°F15.2°C -5537.2°C - 9.0 mph S14.5 kmh S 13.4 mph21.6 kmh 24.60 in833.1 mb 0.00 in0.0 mm 0.00 in/hr0.0 mm/hr 0.00 in0.0 mm
12:19 AM 57.6°F14.2°C -5537.2°C - 9.0 mph S14.5 kmh S 18.6 mph29.9 kmh 24.60 in833.1 mb 0.00 in0.0 mm 0.00 in/hr0.0 mm/hr 0.00 in0.0 mm
12:24 AM 55.9°F13.3°C 4.1°F-15.5°C 12% 10.0 mph SW16.1 kmh SW 14.3 mph23.0 kmh 24.60 in833.1 mb 0.00 in0.0 mm 0.00 in/hr0.0 mm/hr 0.00 in0.0 mm
12:29 AM 55.2°F12.9°C 11.1°F-11.6°C 17% 9.0 mph WSW14.5 kmh WSW 13.4 mph21.6 kmh 24.60 in833.1 mb 0.00 in0.0 mm 0.00 in/hr0.0 mm/hr 0.00 in0.0 mm
12:34 AM 53.8°F12.1°C 19.8°F-6.8°C 26% 9.0 mph WSW14.5 kmh WSW 13.9 mph22.4 kmh 24.60 in833.1 mb 0.00 in0.0 mm 0.00 in/hr0.0 mm/hr 0.00 in0.0 mm
12:39 AM 53.1°F11.7°C 22.5°F-5.3°C 30% 10.0 mph WSW16.1 kmh WSW 13.9 mph22.4 kmh 24.60 in833.1 mb 0.00 in0.0 mm 0.00 in/hr0.0 mm/hr 0.00 in0.0 mm
12:44 AM 52.0°F11.1°C 25.9°F-3.4°C 36% 10.0 mph SW16.1 kmh SW 15.9 mph25.6 kmh 24.60 in833.1 mb 0.00 in0.0 mm 0.00 in/hr0.0 mm/hr 0.00 in0.0 mm
12:49 AM 51.3°F10.7°C 26.6°F-3.0°C 38% 11.0 mph SW17.7 kmh SW 15.9 mph25.6 kmh 24.60 in833.1 mb 0.00 in0.0 mm 0.00 in/hr0.0 mm/hr 0.00 in0.0 mm
12:54 AM 51.3°F10.7°C 26.6°F-3.0°C 38% 11.0 mph SW17.7 kmh SW 17.7 mph28.5 kmh 24.60 in833.1 mb 0.00 in0.0 mm 0.00 in/hr0.0 mm/hr 0.00 in0.0 mm
12:59 AM 51.3°F10.7°C 26.6°F-3.0°C 38% 12.0 mph SW19.3 kmh SW 21.0 mph33.8 kmh 24.60 in833.1 mb 0.00 in0.0 mm 0.00 in/hr0.0 mm/hr 0.00 in0.0 mm
01:04 AM 50.0°F10.0°C 28.4°F-2.0°C 43% 13.0 mph SW20.9 kmh SW 21.0 mph33.8 kmh 24.60 in833.1 mb 0.00 in0.0 mm 0.00 in/hr0.0 mm/hr 0.00 in0.0 mm
01:09 AM 50.9°F10.5°C 27.5°F-2.5°C 40% 14.0 mph SW22.5 kmh SW 21.0 mph33.8 kmh 24.60 in833.1 mb 0.00 in0.0 mm 0.00 in/hr0.0 mm/hr 0.00 in0.0 mm
01:14 AM 51.4°F10.8°C 26.6°F-3.0°C 38% 14.0 mph SW22.5 kmh SW 21.5 mph34.6 kmh 24.60 in833.1 mb 0.00 in0.0 mm 0.00 in/hr0.0 mm/hr 0.00 in0.0 mm
01:19 AM 50.5°F10.3°C 27.7°F-2.4°C 41% 15.0 mph SW24.1 kmh SW 23.7 mph38.1 kmh 24.60 in833.1 mb 0.00 in0.0 mm 0.00 in/hr0.0 mm/hr 0.00 in0.0 mm
01:24 AM 51.1°F10.6°C 28.2°F-2.1°C 41% 14.0 mph SW22.5 kmh SW 19.0 mph30.6 kmh 24.60 in833.1 mb 0.00 in0.0 mm 0.00 in/hr0.0 mm/hr 0.00 in0.0 mm
01:29 AM 51.1°F10.6°C 27.0°F-2.8°C 39% 13.0 mph SW20.9 kmh SW 18.1 mph29.1 kmh 24.60 in833.1 mb 0.00 in0.0 mm 0.00 in/hr0.0 mm/hr 0.00 in0.0 mm
01:34 AM 51.1°F10.6°C 27.7°F-2.4°C 40% 12.0 mph SW19.3 kmh SW 20.6 mph33.2 kmh 24.60 in833.1 mb 0.00 in0.0 mm 0.00 in/hr0.0 mm/hr 0.00 in0.0 mm
01:39 AM 50.7°F10.4°C 29.1°F-1.6°C 43% 13.0 mph SW20.9 kmh SW 21.5 mph34.6 kmh 24.60 in833.1 mb 0.00 in0.0 mm 0.00 in/hr0.0 mm/hr 0.00 in0.0 mm
01:44 AM 50.7°F10.4°C 29.7°F-1.3°C 44% 15.0 mph SW24.1 kmh SW 23.7 mph38.1 kmh 24.60 in833.1 mb 0.00 in0.0 mm 0.00 in/hr0.0 mm/hr 0.00 in0.0 mm
01:49 AM 50.5°F10.3°C 30.6°F-0.8°C 46% 16.0 mph SW25.7 kmh SW 28.4 mph45.7 kmh 24.60 in833.1 mb 0.00 in0.0 mm 0.00 in/hr0.0 mm/hr 0.00 in0.0 mm
01:54 AM 49.8°F9.9°C 30.9°F-0.6°C 48% 16.0 mph SW25.7 kmh SW 24.4 mph39.3 kmh 24.60 in833.1 mb 0.00 in0.0 mm 0.00 in/hr0.0 mm/hr 0.00 in0.0 mm
01:59 AM 49.3°F9.6°C 32.0°F0.0°C 51% 15.0 mph SW24.1 kmh SW 22.8 mph36.7 kmh 24.60 in833.1 mb 0.00 in0.0 mm 0.00 in/hr0.0 mm/hr 0.00 in0.0 mm
02:05 AM 48.7°F9.3°C 32.9°F0.5°C 54% 12.0 mph SW19.3 kmh SW 15.4 mph24.8 kmh 24.60 in833.1 mb 0.00 in0.0 mm 0.00 in/hr0.0 mm/hr 0.00 in0.0 mm
02:10 AM 48.6°F9.2°C 32.7°F0.4°C 54% 9.0 mph SW14.5 kmh SW 11.2 mph18.0 kmh 24.60 in833.1 mb 0.00 in0.0 mm 0.00 in/hr0.0 mm/hr 0.00 in0.0 mm
02:15 AM 47.8°F8.8°C 31.5°F-0.3°C 53% 9.0 mph SW14.5 kmh SW 19.5 mph31.4 kmh 24.60 in833.1 mb 0.00 in0.0 mm 0.00 in/hr0.0 mm/hr 0.00 in0.0 mm
02:20 AM 48.2°F9.0°C 31.8°F-0.1°C 53% 12.0 mph SW19.3 kmh SW 19.5 mph31.4 kmh 24.60 in833.1 mb 0.00 in0.0 mm 0.00 in/hr0.0 mm/hr 0.00 in0.0 mm
02:25 AM 48.6°F9.2°C 31.3°F-0.4°C 51% 14.0 mph SW22.5 kmh SW 21.9 mph35.2 kmh 24.60 in833.1 mb 0.00 in0.0 mm 0.00 in/hr0.0 mm/hr 0.00 in0.0 mm
02:30 AM 48.6°F9.2°C 31.3°F-0.4°C 51% 13.0 mph SW20.9 kmh SW 20.1 mph32.3 kmh 24.60 in833.1 mb 0.00 in0.0 mm 0.00 in/hr0.0 mm/hr 0.00 in0.0 mm
02:35 AM 48.2°F9.0°C 31.5°F-0.3°C 52% 12.0 mph SW19.3 kmh SW 19.9 mph32.0 kmh 24.60 in833.1 mb 0.00 in0.0 mm 0.00 in/hr0.0 mm/hr 0.00 in0.0 mm
02:40 AM 48.0°F8.9°C 31.3°F-0.4°C 52% 12.0 mph SW19.3 kmh SW 17.7 mph28.5 kmh 24.60 in833.1 mb 0.00 in0.0 mm 0.00 in/hr0.0 mm/hr 0.00 in0.0 mm
02:45 AM 47.8°F8.8°C 31.5°F-0.3°C 53% 11.0 mph SW17.7 kmh SW 19.5 mph31.4 kmh 24.60 in833.1 mb 0.00 in0.0 mm 0.00 in/hr0.0 mm/hr 0.00 in0.0 mm
02:50 AM 47.7°F8.7°C 31.8°F-0.1°C 54% 10.0 mph SSW16.1 kmh SSW 12.1 mph19.5 kmh 24.60 in833.1 mb 0.00 in0.0 mm 0.00 in/hr0.0 mm/hr 0.00 in0.0 mm
02:55 AM 47.7°F8.7°C 31.8°F-0.1°C 54% 9.0 mph SSW14.5 kmh SSW 16.3 mph26.2 kmh 24.60 in833.1 mb 0.00 in0.0 mm 0.00 in/hr0.0 mm/hr 0.00 in0.0 mm
03:00 AM 47.7°F8.7°C 31.8°F-0.1°C 54% 8.0 mph SSW12.9 kmh SSW 12.1 mph19.5 kmh 24.60 in833.1 mb 0.00 in0.0 mm 0.00 in/hr0.0 mm/hr 0.00 in0.0 mm
03:05 AM 47.7°F8.7°C 31.8°F-0.1°C 54% 6.0 mph SW9.7 kmh SW 9.2 mph14.8 kmh 24.60 in833.1 mb 0.00 in0.0 mm 0.00 in/hr0.0 mm/hr 0.00 in0.0 mm
03:10 AM 47.8°F8.8°C 32.0°F0.0°C 54% 5.0 mph SW8.0 kmh SW 10.5 mph16.9 kmh 24.60 in833.1 mb 0.00 in0.0 mm 0.00 in/hr0.0 mm/hr 0.00 in0.0 mm
03:15 AM 47.5°F8.6°C 32.2°F0.1°C 55% 3.0 mph S4.8 kmh S 5.8 mph9.3 kmh 24.60 in833.1 mb 0.00 in0.0 mm 0.00 in/hr0.0 mm/hr 0.00 in0.0 mm
03:20 AM 46.8°F8.2°C 32.4°F0.2°C 57% 4.0 mph SSE6.4 kmh SSE 10.1 mph16.3 kmh 24.60 in833.1 mb 0.00 in0.0 mm 0.00 in/hr0.0 mm/hr 0.00 in0.0 mm
03:25 AM 45.1°F7.3°C 34.5°F1.4°C 66% 6.0 mph E9.7 kmh E 11.6 mph18.7 kmh 24.60 in833.1 mb 0.00 in0.0 mm 0.00 in/hr0.0 mm/hr 0.00 in0.0 mm
03:30 AM 45.0°F7.2°C 36.1°F2.3°C 71% 8.0 mph NE12.9 kmh NE 13.9 mph22.4 kmh 24.60 in833.1 mb 0.00 in0.0 mm 0.00 in/hr0.0 mm/hr 0.00 in0.0 mm
03:35 AM 44.6°F7.0°C 36.5°F2.5°C 73% 8.0 mph NNE12.9 kmh NNE 10.5 mph16.9 kmh 24.60 in833.1 mb 0.00 in0.0 mm 0.00 in/hr0.0 mm/hr 0.00 in0.0 mm
03:40 AM 45.1°F7.3°C 36.3°F2.4°C 71% 6.0 mph NNE9.7 kmh NNE 8.3 mph13.4 kmh 24.60 in833.1 mb 0.00 in0.0 mm 0.00 in/hr0.0 mm/hr 0.00 in0.0 mm
03:45 AM 45.3°F7.4°C 36.1°F2.3°C 70% 4.0 mph E6.4 kmh E 7.4 mph11.9 kmh 24.60 in833.1 mb 0.00 in0.0 mm 0.00 in/hr0.0 mm/hr 0.00 in0.0 mm
03:50 AM 45.0°F7.2°C 36.1°F2.3°C 71% 1.0 mph S1.6 kmh S 5.4 mph8.7 kmh 24.60 in833.1 mb 0.00 in0.0 mm 0.00 in/hr0.0 mm/hr 0.00 in0.0 mm
03:55 AM 44.2°F6.8°C 36.9°F2.7°C 75% 4.0 mph SW6.4 kmh SW 8.7 mph14.0 kmh 24.60 in833.1 mb 0.00 in0.0 mm 0.00 in/hr0.0 mm/hr 0.00 in0.0 mm
04:00 AM 44.2°F6.8°C 36.9°F2.7°C 75% 5.0 mph WNW8.0 kmh WNW 7.4 mph11.9 kmh 24.60 in833.1 mb 0.00 in0.0 mm 0.00 in/hr0.0 mm/hr 0.00 in0.0 mm
04:05 AM 43.7°F6.5°C 36.7°F2.6°C 76% 6.0 mph NW9.7 kmh NW 11.6 mph18.7 kmh 24.60 in833.1 mb 0.00 in0.0 mm 0.00 in/hr0.0 mm/hr 0.00 in0.0 mm
04:10 AM 43.3°F6.3°C 37.6°F3.1°C 80% 8.0 mph NW12.9 kmh NW 12.1 mph19.5 kmh 24.60 in833.1 mb 0.00 in0.0 mm 0.00 in/hr0.0 mm/hr 0.00 in0.0 mm
04:15 AM 43.2°F6.2°C 38.1°F3.4°C 82% 9.0 mph NW14.5 kmh NW 11.2 mph18.0 kmh 24.60 in833.1 mb 0.00 in0.0 mm 0.00 in/hr0.0 mm/hr 0.00 in0.0 mm
04:20 AM 43.0°F6.1°C 38.1°F3.4°C 83% 9.0 mph NW14.5 kmh NW 11.2 mph18.0 kmh 24.60 in833.1 mb 0.00 in0.0 mm 0.00 in/hr0.0 mm/hr 0.00 in0.0 mm
04:25 AM 42.8°F6.0°C 38.3°F3.5°C 84% 8.0 mph NW12.9 kmh NW 12.1 mph19.5 kmh 24.60 in833.1 mb 0.00 in0.0 mm 0.00 in/hr0.0 mm/hr 0.00 in0.0 mm
04:30 AM 42.6°F5.9°C 38.5°F3.6°C 85% 7.0 mph NNW11.3 kmh NNW 8.7 mph14.0 kmh 24.57 in832.0 mb 0.00 in0.0 mm 0.00 in/hr0.0 mm/hr 0.00 in0.0 mm
04:35 AM 42.6°F5.9°C 38.7°F3.7°C 86% 6.0 mph NW9.7 kmh NW 9.2 mph14.8 kmh 24.57 in832.0 mb 0.00 in0.0 mm 0.00 in/hr0.0 mm/hr 0.00 in0.0 mm
04:40 AM 42.6°F5.9°C 38.7°F3.7°C 86% 4.0 mph NW6.4 kmh NW 6.9 mph11.1 kmh 24.57 in832.0 mb 0.00 in0.0 mm 0.00 in/hr0.0 mm/hr 0.00 in0.0 mm
04:45 AM 42.4°F5.8°C 38.5°F3.6°C 86% 3.0 mph WNW4.8 kmh WNW 7.8 mph12.6 kmh 24.57 in832.0 mb 0.00 in0.0 mm 0.00 in/hr0.0 mm/hr 0.00 in0.0 mm
04:50 AM 42.4°F5.8°C 38.5°F3.6°C 86% 5.0 mph NW8.0 kmh NW 12.5 mph20.1 kmh 24.57 in832.0 mb 0.00 in0.0 mm 0.00 in/hr0.0 mm/hr 0.00 in0.0 mm
04:55 AM 42.6°F5.9°C 38.7°F3.7°C 86% 7.0 mph NW11.3 kmh NW 11.2 mph18.0 kmh 24.57 in832.0 mb 0.00 in0.0 mm 0.00 in/hr0.0 mm/hr 0.00 in0.0 mm
05:00 AM 42.4°F5.8°C 38.8°F3.8°C 87% 8.0 mph NW12.9 kmh NW 10.1 mph16.3 kmh 24.57 in832.0 mb 0.00 in0.0 mm 0.00 in/hr0.0 mm/hr 0.00 in0.0 mm
05:05 AM 42.3°F5.7°C 39.2°F4.0°C 89% 8.0 mph NW12.9 kmh NW 11.6 mph18.7 kmh 24.57 in832.0 mb 0.00 in0.0 mm 0.00 in/hr0.0 mm/hr 0.00 in0.0 mm
05:10 AM 42.1°F5.6°C 39.6°F4.2°C 91% 8.0 mph NW12.9 kmh NW 14.3 mph23.0 kmh 24.57 in832.0 mb 0.00 in0.0 mm 0.00 in/hr0.0 mm/hr 0.00 in0.0 mm
05:15 AM 42.1°F5.6°C 39.6°F4.2°C 91% 8.0 mph NW12.9 kmh NW 13.0 mph20.9 kmh 24.57 in832.0 mb 0.00 in0.0 mm 0.00 in/hr0.0 mm/hr 0.00 in0.0 mm
05:20 AM 42.1°F5.6°C 39.9°F4.4°C 92% 9.0 mph NW14.5 kmh NW 15.2 mph24.5 kmh 24.57 in832.0 mb 0.00 in0.0 mm 0.00 in/hr0.0 mm/hr 0.00 in0.0 mm
05:25 AM 42.1°F5.6°C 39.9°F4.4°C 92% 10.0 mph NW16.1 kmh NW 13.9 mph22.4 kmh 24.57 in832.0 mb 0.00 in0.0 mm 0.00 in/hr0.0 mm/hr 0.00 in0.0 mm
05:30 AM 41.9°F5.5°C 40.1°F4.5°C 93% 11.0 mph NW17.7 kmh NW 15.4 mph24.8 kmh 24.57 in832.0 mb 0.00 in0.0 mm 0.00 in/hr0.0 mm/hr 0.00 in0.0 mm
05:35 AM 41.7°F5.4°C 40.1°F4.5°C 94% 11.0 mph NW17.7 kmh NW 15.4 mph24.8 kmh 24.57 in832.0 mb 0.00 in0.0 mm 0.00 in/hr0.0 mm/hr 0.00 in0.0 mm
05:40 AM 41.5°F5.3°C 40.3°F4.6°C 95% 9.0 mph NW14.5 kmh NW 13.9 mph22.4 kmh 24.57 in832.0 mb 0.00 in0.0 mm 0.00 in/hr0.0 mm/hr 0.00 in0.0 mm
05:45 AM 41.5°F5.3°C 40.3°F4.6°C 95% 9.0 mph NW14.5 kmh NW 12.1 mph19.5 kmh 24.57 in832.0 mb 0.00 in0.0 mm 0.00 in/hr0.0 mm/hr 0.00 in0.0 mm
05:50 AM 41.4°F5.2°C 40.3°F4.6°C 96% 10.0 mph NW16.1 kmh NW 14.8 mph23.8 kmh 24.57 in832.0 mb 0.00 in0.0 mm 0.00 in/hr0.0 mm/hr 0.00 in0.0 mm
05:55 AM 41.2°F5.1°C 40.1°F4.5°C 96% 9.0 mph NW14.5 kmh NW 12.5 mph20.1 kmh 24.57 in832.0 mb 0.00 in0.0 mm 0.00 in/hr0.0 mm/hr 0.00 in0.0 mm
06:00 AM 41.2°F5.1°C 40.5°F4.7°C 97% 8.0 mph NW12.9 kmh NW 11.2 mph18.0 kmh 24.57 in832.0 mb 0.00 in0.0 mm 0.00 in/hr0.0 mm/hr 0.00 in0.0 mm
06:05 AM 41.2°F5.1°C 40.5°F4.7°C 97% 7.0 mph NW11.3 kmh NW 10.1 mph16.3 kmh 24.57 in832.0 mb 0.00 in0.0 mm 0.00 in/hr0.0 mm/hr 0.00 in0.0 mm
06:10 AM 41.2°F5.1°C 40.5°F4.7°C 97% 8.0 mph NNW12.9 kmh NNW 13.0 mph20.9 kmh 24.57 in832.0 mb 0.00 in0.0 mm 0.00 in/hr0.0 mm/hr 0.00 in0.0 mm
06:15 AM 41.0°F5.0°C 40.3°F4.6°C 97% 10.0 mph NNW16.1 kmh NNW 13.9 mph22.4 kmh 24.57 in832.0 mb 0.00 in0.0 mm 0.00 in/hr0.0 mm/hr 0.00 in0.0 mm
06:20 AM 40.6°F4.8°C 39.9°F4.4°C 97% 11.0 mph NNW17.7 kmh NNW 17.7 mph28.5 kmh 24.57 in832.0 mb 0.00 in0.0 mm 0.00 in/hr0.0 mm/hr 0.00 in0.0 mm
06:25 AM 40.6°F4.8°C 39.9°F4.4°C 97% 12.0 mph NNW19.3 kmh NNW 16.3 mph26.2 kmh 24.57 in832.0 mb 0.00 in0.0 mm 0.00 in/hr0.0 mm/hr 0.00 in0.0 mm
06:30 AM 40.5°F4.7°C 39.7°F4.3°C 97% 10.0 mph NNW16.1 kmh NNW 15.2 mph24.5 kmh 24.57 in832.0 mb 0.00 in0.0 mm 0.00 in/hr0.0 mm/hr 0.00 in0.0 mm
06:35 AM 40.5°F4.7°C 39.7°F4.3°C 97% 9.0 mph NNW14.5 kmh NNW 12.5 mph20.1 kmh 24.57 in832.0 mb 0.00 in0.0 mm 0.00 in/hr0.0 mm/hr 0.00 in0.0 mm
06:41 AM 40.3°F4.6°C 39.2°F4.0°C 96% 9.0 mph NW14.5 kmh NW 13.4 mph21.6 kmh 24.57 in832.0 mb 0.00 in0.0 mm 0.00 in/hr0.0 mm/hr 0.00 in0.0 mm
06:46 AM 40.1°F4.5°C 39.0°F3.9°C 96% 10.0 mph NNW16.1 kmh NNW 14.8 mph23.8 kmh 24.57 in832.0 mb 0.00 in0.0 mm 0.00 in/hr0.0 mm/hr 0.00 in0.0 mm
06:51 AM 40.1°F4.5°C 39.0°F3.9°C 96% 11.0 mph NNW17.7 kmh NNW 14.8 mph23.8 kmh 24.57 in832.0 mb 0.00 in0.0 mm 0.00 in/hr0.0 mm/hr 0.00 in0.0 mm
06:56 AM 39.7°F4.3°C 38.7°F3.7°C 96% 11.0 mph NW17.7 kmh NW 13.9 mph22.4 kmh 24.57 in832.0 mb 0.00 in0.0 mm 0.00 in/hr0.0 mm/hr 0.00 in0.0 mm
07:01 AM 39.9°F4.4°C 38.8°F3.8°C 96% 10.0 mph NW16.1 kmh NW 12.5 mph20.1 kmh 24.57 in832.0 mb 0.00 in0.0 mm 0.00 in/hr0.0 mm/hr 0.00 in0.0 mm
07:06 AM 39.9°F4.4°C 38.8°F3.8°C 96% 8.0 mph NNW12.9 kmh NNW 12.1 mph19.5 kmh 24.57 in832.0 mb 0.00 in0.0 mm 0.00 in/hr0.0 mm/hr 0.00 in0.0 mm
07:11 AM 39.7°F4.3°C 38.7°F3.7°C 96% 8.0 mph NNW12.9 kmh NNW 11.2 mph18.0 kmh 24.57 in832.0 mb 0.00 in0.0 mm 0.00 in/hr0.0 mm/hr 0.00 in0.0 mm
07:16 AM 39.7°F4.3°C 38.7°F3.7°C 96% 8.0 mph NNW12.9 kmh NNW 10.1 mph16.3 kmh 24.57 in832.0 mb 0.00 in0.0 mm 0.00 in/hr0.0 mm/hr 0.00 in0.0 mm
07:21 AM 39.7°F4.3°C 38.7°F3.7°C 96% 7.0 mph NW11.3 kmh NW 9.6 mph15.4 kmh 24.57 in832.0 mb 0.00 in0.0 mm 0.00 in/hr0.0 mm/hr 0.00 in0.0 mm
07:26 AM 39.6°F4.2°C 38.5°F3.6°C 96% 8.0 mph NNW12.9 kmh NNW 11.2 mph18.0 kmh 24.57 in832.0 mb 0.00 in0.0 mm 0.00 in/hr0.0 mm/hr 0.00 in0.0 mm
07:31 AM 39.4°F4.1°C 38.1°F3.4°C 95% 8.0 mph NNW12.9 kmh NNW 11.6 mph18.7 kmh 24.57 in832.0 mb 0.00 in0.0 mm 0.00 in/hr0.0 mm/hr 0.00 in0.0 mm
07:36 AM 39.4°F4.1°C 38.1°F3.4°C 95% 9.0 mph NNW14.5 kmh NNW 13.4 mph21.6 kmh 24.57 in832.0 mb 0.00 in0.0 mm 0.00 in/hr0.0 mm/hr 0.00 in0.0 mm
07:41 AM 39.6°F4.2°C 38.3°F3.5°C 95% 8.0 mph NW12.9 kmh NW 11.0 mph17.7 kmh 24.57 in832.0 mb 0.00 in0.0 mm 0.00 in/hr0.0 mm/hr 0.00 in0.0 mm
07:46 AM 39.6°F4.2°C 38.3°F3.5°C 95% 8.0 mph NW12.9 kmh NW 11.0 mph17.7 kmh 24.57 in832.0 mb 0.00 in0.0 mm 0.00 in/hr0.0 mm/hr 0.00 in0.0 mm
07:51 AM 39.6°F4.2°C 38.3°F3.5°C 95% 8.0 mph NW12.9 kmh NW 11.2 mph18.0 kmh 24.57 in832.0 mb 0.00 in0.0 mm 0.00 in/hr0.0 mm/hr 0.00 in0.0 mm
07:56 AM 39.6°F4.2°C 38.3°F3.5°C 95% 7.0 mph NW11.3 kmh NW 8.3 mph13.4 kmh 24.57 in832.0 mb 0.00 in0.0 mm 0.00 in/hr0.0 mm/hr 0.00 in0.0 mm
08:06 AM 39.7°F4.3°C 38.7°F3.7°C 96% 5.0 mph NNW8.0 kmh NNW 7.4 mph11.9 kmh 24.57 in832.0 mb 0.00 in0.0 mm 0.00 in/hr0.0 mm/hr 0.00 in0.0 mm
08:11 AM 39.7°F4.3°C 38.7°F3.7°C 96% 3.0 mph NNW4.8 kmh NNW 5.4 mph8.7 kmh 24.57 in832.0 mb 0.00 in0.0 mm 0.00 in/hr0.0 mm/hr 0.00 in0.0 mm
08:16 AM 39.9°F4.4°C 38.8°F3.8°C 96% 2.0 mph NNW3.2 kmh NNW 4.9 mph7.9 kmh 24.57 in832.0 mb 0.00 in0.0 mm 0.00 in/hr0.0 mm/hr 0.00 in0.0 mm
08:21 AM 39.7°F4.3°C 38.7°F3.7°C 96% 4.0 mph NW6.4 kmh NW 6.9 mph11.1 kmh 24.57 in832.0 mb 0.00 in0.0 mm 0.00 in/hr0.0 mm/hr 0.00 in0.0 mm
08:26 AM 39.7°F4.3°C 38.7°F3.7°C 96% 5.0 mph NW8.0 kmh NW 7.4 mph11.9 kmh 24.57 in832.0 mb 0.00 in0.0 mm 0.00 in/hr0.0 mm/hr 0.00 in0.0 mm
08:31 AM 39.7°F4.3°C 38.7°F3.7°C 96% 5.0 mph NW8.0 kmh NW 6.9 mph11.1 kmh 24.57 in832.0 mb 0.00 in0.0 mm 0.00 in/hr0.0 mm/hr 0.00 in0.0 mm
08:36 AM 39.4°F4.1°C 38.3°F3.5°C 96% 6.0 mph NW9.7 kmh NW 9.6 mph15.4 kmh 24.57 in832.0 mb 0.00 in0.0 mm 0.00 in/hr0.0 mm/hr 0.00 in0.0 mm
08:41 AM 39.4°F4.1°C 38.3°F3.5°C 96% 7.0 mph NW11.3 kmh NW 8.7 mph14.0 kmh 24.57 in832.0 mb 0.00 in0.0 mm 0.00 in/hr0.0 mm/hr 0.00 in0.0 mm
08:46 AM 39.4°F4.1°C 38.3°F3.5°C 96% 6.0 mph NW9.7 kmh NW 7.8 mph12.6 kmh 24.57 in832.0 mb 0.00 in0.0 mm 0.00 in/hr0.0 mm/hr 0.00 in0.0 mm
08:51 AM 39.4°F4.1°C 38.3°F3.5°C 96% 6.0 mph NW9.7 kmh NW 9.2 mph14.8 kmh 24.57 in832.0 mb 0.00 in0.0 mm 0.00 in/hr0.0 mm/hr 0.00 in0.0 mm
08:56 AM 39.2°F4.0°C 38.1°F3.4°C 96% 6.0 mph NW9.7 kmh NW 9.6 mph15.4 kmh 24.57 in832.0 mb 0.00 in0.0 mm 0.00 in/hr0.0 mm/hr 0.00 in0.0 mm
09:01 AM 39.4°F4.1°C 38.3°F3.5°C 96% 6.0 mph NW9.7 kmh NW 8.3 mph13.4 kmh 24.57 in832.0 mb 0.00 in0.0 mm 0.00 in/hr0.0 mm/hr 0.00 in0.0 mm
09:06 AM 39.4°F4.1°C 38.3°F3.5°C 96% 6.0 mph NW9.7 kmh NW 7.4 mph11.9 kmh 24.57 in832.0 mb 0.00 in0.0 mm 0.00 in/hr0.0 mm/hr 0.00 in0.0 mm
09:11 AM 39.4°F4.1°C 38.7°F3.7°C 97% 6.0 mph NW9.7 kmh NW 9.2 mph14.8 kmh 24.57 in832.0 mb 0.00 in0.0 mm 0.00 in/hr0.0 mm/hr 0.00 in0.0 mm
09:16 AM 39.6°F4.2°C 38.8°F3.8°C 97% 6.0 mph NW9.7 kmh NW 7.8 mph12.6 kmh 24.57 in832.0 mb 0.00 in0.0 mm 0.00 in/hr0.0 mm/hr 0.00 in0.0 mm
09:21 AM 39.6°F4.2°C 38.8°F3.8°C 97% 6.0 mph NW9.7 kmh NW 7.8 mph12.6 kmh 24.57 in832.0 mb 0.00 in0.0 mm 0.00 in/hr0.0 mm/hr 0.00 in0.0 mm
09:26 AM 39.4°F4.1°C 38.7°F3.7°C 97% 6.0 mph NW9.7 kmh NW 7.8 mph12.6 kmh 24.57 in832.0 mb 0.00 in0.0 mm 0.00 in/hr0.0 mm/hr 0.00 in0.0 mm
09:31 AM 39.4°F4.1°C 38.7°F3.7°C 97% 5.0 mph NNW8.0 kmh NNW 6.7 mph10.8 kmh 24.57 in832.0 mb 0.00 in0.0 mm 0.00 in/hr0.0 mm/hr 0.00 in0.0 mm
09:36 AM 39.6°F4.2°C 38.8°F3.8°C 97% 4.0 mph NW6.4 kmh NW 6.3 mph10.1 kmh 24.57 in832.0 mb 0.00 in0.0 mm 0.00 in/hr0.0 mm/hr 0.00 in0.0 mm
09:41 AM 39.4°F4.1°C 38.7°F3.7°C 97% 4.0 mph NW6.4 kmh NW 6.7 mph10.8 kmh 24.57 in832.0 mb 0.00 in0.0 mm 0.00 in/hr0.0 mm/hr 0.00 in0.0 mm
09:46 AM 39.4°F4.1°C 38.7°F3.7°C 97% 4.0 mph NW6.4 kmh NW 6.3 mph10.1 kmh 24.57 in832.0 mb 0.00 in0.0 mm 0.00 in/hr0.0 mm/hr 0.00 in0.0 mm
09:51 AM 39.4°F4.1°C 38.7°F3.7°C 97% 5.0 mph NW8.0 kmh NW 6.7 mph10.8 kmh 24.57 in832.0 mb 0.00 in0.0 mm 0.00 in/hr0.0 mm/hr 0.00 in0.0 mm
09:56 AM 39.6°F4.2°C 38.8°F3.8°C 97% 5.0 mph NW8.0 kmh NW 7.4 mph11.9 kmh 24.57 in832.0 mb 0.00 in0.0 mm 0.00 in/hr0.0 mm/hr 0.00 in0.0 mm
10:01 AM 39.6°F4.2°C 38.8°F3.8°C 97% 6.0 mph NW9.7 kmh NW 7.8 mph12.6 kmh 24.60 in833.1 mb 0.00 in0.0 mm 0.00 in/hr0.0 mm/hr 0.00 in0.0 mm
10:06 AM 39.4°F4.1°C 39.4°F4.1°C 100% 6.0 mph NW9.7 kmh NW 8.3 mph13.4 kmh 24.60 in833.1 mb 0.00 in0.0 mm 0.00 in/hr0.0 mm/hr 0.00 in0.0 mm
10:11 AM 39.4°F4.1°C 38.7°F3.7°C 97% 6.0 mph NW9.7 kmh NW 8.7 mph14.0 kmh 24.60 in833.1 mb 0.00 in0.0 mm 0.00 in/hr0.0 mm/hr 0.00 in0.0 mm
10:16 AM 39.9°F4.4°C 39.9°F4.4°C 100% 6.0 mph NW9.7 kmh NW 8.7 mph14.0 kmh 24.60 in833.1 mb 0.00 in0.0 mm 0.00 in/hr0.0 mm/hr 0.00 in0.0 mm
10:21 AM 39.7°F4.3°C 39.7°F4.3°C 100% 6.0 mph NW9.7 kmh NW 7.8 mph12.6 kmh 24.60 in833.1 mb 0.00 in0.0 mm 0.00 in/hr0.0 mm/hr 0.00 in0.0 mm
10:26 AM 39.6°F4.2°C 39.6°F4.2°C 100% 6.0 mph NW9.7 kmh NW 8.7 mph14.0 kmh 24.60 in833.1 mb 0.00 in0.0 mm 0.00 in/hr0.0 mm/hr 0.00 in0.0 mm
10:31 AM 39.6°F4.2°C 38.8°F3.8°C 97% 7.0 mph NNW11.3 kmh NNW 9.2 mph14.8 kmh 24.60 in833.1 mb 0.00 in0.0 mm 0.00 in/hr0.0 mm/hr 0.00 in0.0 mm
10:36 AM 39.6°F4.2°C 38.8°F3.8°C 97% 7.0 mph NNW11.3 kmh NNW 8.7 mph14.0 kmh 24.60 in833.1 mb 0.00 in0.0 mm 0.00 in/hr0.0 mm/hr 0.00 in0.0 mm
10:41 AM 39.7°F4.3°C 39.0°F3.9°C 97% 7.0 mph NW11.3 kmh NW 9.2 mph14.8 kmh 24.60 in833.1 mb 0.00 in0.0 mm 0.00 in/hr0.0 mm/hr 0.00 in0.0 mm
10:46 AM 39.7°F4.3°C 39.0°F3.9°C 97% 7.0 mph NW11.3 kmh NW 9.2 mph14.8 kmh 24.60 in833.1 mb 0.00 in0.0 mm 0.00 in/hr0.0 mm/hr 0.00 in0.0 mm
10:51 AM 39.9°F4.4°C 39.2°F4.0°C 97% 6.0 mph NW9.7 kmh NW 8.3 mph13.4 kmh 24.60 in833.1 mb 0.00 in0.0 mm 0.00 in/hr0.0 mm/hr 0.00 in0.0 mm
10:56 AM 39.9°F4.4°C 39.2°F4.0°C 97% 6.0 mph NW9.7 kmh NW 8.3 mph13.4 kmh 24.60 in833.1 mb 0.00 in0.0 mm 0.00 in/hr0.0 mm/hr 0.00 in0.0 mm
11:01 AM 39.9°F4.4°C 39.2°F4.0°C 97% 6.0 mph NW9.7 kmh NW 7.8 mph12.6 kmh 24.60 in833.1 mb 0.00 in0.0 mm 0.00 in/hr0.0 mm/hr 0.00 in0.0 mm
11:06 AM 39.9°F4.4°C 39.2°F4.0°C 97% 5.0 mph NW8.0 kmh NW 6.3 mph10.1 kmh 24.60 in833.1 mb 0.00 in0.0 mm 0.00 in/hr0.0 mm/hr 0.00 in0.0 mm
11:11 AM 40.1°F4.5°C 39.4°F4.1°C 97% 5.0 mph NW8.0 kmh NW 6.9 mph11.1 kmh 24.60 in833.1 mb 0.00 in0.0 mm 0.00 in/hr0.0 mm/hr 0.00 in0.0 mm
11:16 AM 40.3°F4.6°C 39.6°F4.2°C 97% 6.0 mph NW9.7 kmh NW 8.7 mph14.0 kmh 24.60 in833.1 mb 0.00 in0.0 mm 0.00 in/hr0.0 mm/hr 0.00 in0.0 mm
11:21 AM 40.3°F4.6°C 39.6°F4.2°C 97% 6.0 mph NW9.7 kmh NW 9.2 mph14.8 kmh 24.60 in833.1 mb 0.00 in0.0 mm 0.00 in/hr0.0 mm/hr 0.00 in0.0 mm
11:26 AM 40.3°F4.6°C 39.2°F4.0°C 96% 6.0 mph NW9.7 kmh NW 9.2 mph14.8 kmh 24.60 in833.1 mb 0.00 in0.0 mm 0.00 in/hr0.0 mm/hr 0.00 in0.0 mm
11:31 AM 40.3°F4.6°C 39.2°F4.0°C 96% 7.0 mph NW11.3 kmh NW 9.2 mph14.8 kmh 24.60 in833.1 mb 0.00 in0.0 mm 0.00 in/hr0.0 mm/hr 0.00 in0.0 mm
11:36 AM 40.1°F4.5°C 39.0°F3.9°C 96% 7.0 mph NW11.3 kmh NW 10.1 mph16.3 kmh 24.60 in833.1 mb 0.00 in0.0 mm 0.00 in/hr0.0 mm/hr 0.00 in0.0 mm
11:41 AM 40.5°F4.7°C 39.4°F4.1°C 96% 6.0 mph NW9.7 kmh NW 8.7 mph14.0 kmh 24.60 in833.1 mb 0.00 in0.0 mm 0.00 in/hr0.0 mm/hr 0.00 in0.0 mm
11:46 AM 40.6°F4.8°C 39.6°F4.2°C 96% 4.0 mph WNW6.4 kmh WNW 6.9 mph11.1 kmh 24.60 in833.1 mb 0.00 in0.0 mm 0.00 in/hr0.0 mm/hr 0.00 in0.0 mm
11:51 AM 40.5°F4.7°C 39.4°F4.1°C 96% 4.0 mph WNW6.4 kmh WNW 6.9 mph11.1 kmh 24.60 in833.1 mb 0.00 in0.0 mm 0.00 in/hr0.0 mm/hr 0.00 in0.0 mm
11:56 AM 38.1°F3.4°C 37.4°F3.0°C 97% 8.0 mph NW12.9 kmh NW 21.5 mph34.6 kmh 24.60 in833.1 mb 0.00 in0.0 mm 0.00 in/hr0.0 mm/hr 0.00 in0.0 mm
12:01 PM 37.8°F3.2°C 36.7°F2.6°C 96% 13.0 mph NW20.9 kmh NW 20.1 mph32.3 kmh 24.63 in834.1 mb 0.00 in0.0 mm 0.00 in/hr0.0 mm/hr 0.00 in0.0 mm
12:06 PM 37.4°F3.0°C 36.3°F2.4°C 96% 14.0 mph NW22.5 kmh NW 19.0 mph30.6 kmh 24.63 in834.1 mb 0.00 in0.0 mm 0.00 in/hr0.0 mm/hr 0.00 in0.0 mm
12:11 PM 36.9°F2.7°C 35.8°F2.1°C 96% 15.0 mph NW24.1 kmh NW 22.8 mph36.7 kmh 24.63 in834.1 mb 0.00 in0.0 mm 0.00 in/hr0.0 mm/hr 0.00 in0.0 mm
12:16 PM 36.5°F2.5°C 35.8°F2.1°C 97% 17.0 mph NW27.4 kmh NW 21.0 mph33.8 kmh 24.63 in834.1 mb 0.00 in0.0 mm 0.00 in/hr0.0 mm/hr 0.00 in0.0 mm
12:21 PM 36.7°F2.6°C 35.6°F2.0°C 96% 16.0 mph NW25.7 kmh NW 19.5 mph31.4 kmh 24.63 in834.1 mb 0.00 in0.0 mm 0.00 in/hr0.0 mm/hr 0.00 in0.0 mm
12:26 PM 36.5°F2.5°C 35.8°F2.1°C 97% 15.0 mph NW24.1 kmh NW 21.9 mph35.2 kmh 24.63 in834.1 mb 0.00 in0.0 mm 0.00 in/hr0.0 mm/hr 0.00 in0.0 mm
12:31 PM 36.5°F2.5°C 35.4°F1.9°C 96% 15.0 mph NW24.1 kmh NW 21.0 mph33.8 kmh 24.63 in834.1 mb 0.00 in0.0 mm 0.00 in/hr0.0 mm/hr 0.00 in0.0 mm
12:36 PM 36.5°F2.5°C 35.8°F2.1°C 97% 15.0 mph NW24.1 kmh NW 21.0 mph33.8 kmh 24.63 in834.1 mb 0.00 in0.0 mm 0.00 in/hr0.0 mm/hr 0.00 in0.0 mm
12:41 PM 36.5°F2.5°C 35.4°F1.9°C 96% 16.0 mph NW25.7 kmh NW 24.8 mph39.9 kmh 24.63 in834.1 mb 0.00 in0.0 mm 0.00 in/hr0.0 mm/hr 0.00 in0.0 mm
12:47 PM 36.9°F2.7°C 35.8°F2.1°C 96% 15.0 mph NW24.1 kmh NW 19.9 mph32.0 kmh 24.66 in835.1 mb 0.00 in0.0 mm 0.00 in/hr0.0 mm/hr 0.00 in0.0 mm
12:51 PM 37.4°F3.0°C 35.8°F2.1°C 94% 13.0 mph NNW20.9 kmh NNW 19.5 mph31.4 kmh 24.66 in835.1 mb 0.00 in0.0 mm 0.00 in/hr0.0 mm/hr 0.00 in0.0 mm
12:57 PM 37.6°F3.1°C 35.4°F1.9°C 92% 13.0 mph NNW20.9 kmh NNW 18.6 mph29.9 kmh 24.66 in835.1 mb 0.00 in0.0 mm 0.00 in/hr0.0 mm/hr 0.00 in0.0 mm
01:02 PM 37.9°F3.3°C 35.8°F2.1°C 92% 12.0 mph NNW19.3 kmh NNW 15.4 mph24.8 kmh 24.66 in835.1 mb 0.00 in0.0 mm 0.00 in/hr0.0 mm/hr 0.00 in0.0 mm
01:07 PM 38.1°F3.4°C 35.8°F2.1°C 91% 12.0 mph NNW19.3 kmh NNW 18.1 mph29.1 kmh 24.66 in835.1 mb 0.00 in0.0 mm 0.00 in/hr0.0 mm/hr 0.00 in0.0 mm
01:12 PM 38.5°F3.6°C 35.2°F1.8°C 88% 13.0 mph NNW20.9 kmh NNW 19.0 mph30.6 kmh 24.66 in835.1 mb 0.00 in0.0 mm 0.00 in/hr0.0 mm/hr 0.00 in0.0 mm
01:17 PM 38.8°F3.8°C 35.2°F1.8°C 87% 13.0 mph NNW20.9 kmh NNW 15.4 mph24.8 kmh 24.66 in835.1 mb 0.00 in0.0 mm 0.00 in/hr0.0 mm/hr 0.00 in0.0 mm
01:22 PM 38.7°F3.7°C 34.0°F1.1°C 83% 12.0 mph NW19.3 kmh NW 17.7 mph28.5 kmh 24.66 in835.1 mb 0.00 in0.0 mm 0.00 in/hr0.0 mm/hr 0.00 in0.0 mm
01:27 PM 39.2°F4.0°C 35.4°F1.9°C 86% 12.0 mph NW19.3 kmh NW 16.3 mph26.2 kmh 24.66 in835.1 mb 0.00 in0.0 mm 0.00 in/hr0.0 mm/hr 0.00 in0.0 mm
01:32 PM 39.6°F4.2°C 35.8°F2.1°C 86% 12.0 mph NW19.3 kmh NW 17.2 mph27.7 kmh 24.66 in835.1 mb 0.00 in0.0 mm 0.00 in/hr0.0 mm/hr 0.00 in0.0 mm
01:37 PM 39.2°F4.0°C 35.6°F2.0°C 87% 12.0 mph NW19.3 kmh NW 15.4 mph24.8 kmh 24.66 in835.1 mb 0.00 in0.0 mm 0.00 in/hr0.0 mm/hr 0.00 in0.0 mm
01:42 PM 38.7°F3.7°C 35.1°F1.7°C 87% 10.0 mph NW16.1 kmh NW 12.5 mph20.1 kmh 24.66 in835.1 mb 0.00 in0.0 mm 0.00 in/hr0.0 mm/hr 0.00 in0.0 mm
01:47 PM 38.5°F3.6°C 34.9°F1.6°C 87% 9.0 mph NW14.5 kmh NW 13.4 mph21.6 kmh 24.69 in836.1 mb 0.00 in0.0 mm 0.00 in/hr0.0 mm/hr 0.00 in0.0 mm
01:52 PM 38.8°F3.8°C 35.2°F1.8°C 87% 9.0 mph NW14.5 kmh NW 12.1 mph19.5 kmh 24.69 in836.1 mb 0.00 in0.0 mm 0.00 in/hr0.0 mm/hr 0.00 in0.0 mm
01:57 PM 39.7°F4.3°C 36.5°F2.5°C 88% 8.0 mph NW12.9 kmh NW 11.0 mph17.7 kmh 24.69 in836.1 mb 0.00 in0.0 mm 0.00 in/hr0.0 mm/hr 0.00 in0.0 mm
02:02 PM 40.1°F4.5°C 36.5°F2.5°C 87% 7.0 mph NW11.3 kmh NW 11.0 mph17.7 kmh 24.69 in836.1 mb 0.00 in0.0 mm 0.00 in/hr0.0 mm/hr 0.00 in0.0 mm
02:07 PM 40.3°F4.6°C 35.8°F2.1°C 84% 6.0 mph NW9.7 kmh NW 11.0 mph17.7 kmh 24.69 in836.1 mb 0.00 in0.0 mm 0.00 in/hr0.0 mm/hr 0.00 in0.0 mm
02:12 PM 41.2°F5.1°C 36.5°F2.5°C 83% 7.0 mph NNW11.3 kmh NNW 12.1 mph19.5 kmh 24.69 in836.1 mb 0.00 in0.0 mm 0.00 in/hr0.0 mm/hr 0.00 in0.0 mm
02:17 PM 41.0°F5.0°C 34.3°F1.3°C 77% 10.0 mph NNW16.1 kmh NNW 15.2 mph24.5 kmh 24.69 in836.1 mb 0.00 in0.0 mm 0.00 in/hr0.0 mm/hr 0.00 in0.0 mm
02:22 PM 42.8°F6.0°C 32.9°F0.5°C 68% 8.0 mph N12.9 kmh N 13.0 mph20.9 kmh 24.69 in836.1 mb 0.00 in0.0 mm 0.00 in/hr0.0 mm/hr 0.00 in0.0 mm
02:27 PM 43.7°F6.5°C 33.4°F0.8°C 67% 6.0 mph NE9.7 kmh NE 10.1 mph16.3 kmh 24.69 in836.1 mb 0.00 in0.0 mm 0.00 in/hr0.0 mm/hr 0.00 in0.0 mm
02:32 PM 43.7°F6.5°C 31.5°F-0.3°C 62% 8.0 mph N12.9 kmh N 20.1 mph32.3 kmh 24.69 in836.1 mb 0.00 in0.0 mm 0.00 in/hr0.0 mm/hr 0.00 in0.0 mm
02:37 PM 43.5°F6.4°C 28.9°F-1.7°C 56% 9.0 mph NW14.5 kmh NW 15.2 mph24.5 kmh 24.69 in836.1 mb 0.00 in0.0 mm 0.00 in/hr0.0 mm/hr 0.00 in0.0 mm
02:42 PM 44.1°F6.7°C 27.1°F-2.7°C 51% 8.0 mph NW12.9 kmh NW 20.6 mph33.2 kmh 24.69 in836.1 mb 0.00 in0.0 mm 0.00 in/hr0.0 mm/hr 0.00 in0.0 mm
02:47 PM 44.1°F6.7°C 21.9°F-5.6°C 41% 10.0 mph NW16.1 kmh NW 21.9 mph35.2 kmh 24.72 in837.1 mb 0.00 in0.0 mm 0.00 in/hr0.0 mm/hr 0.00 in0.0 mm
02:52 PM 45.1°F7.3°C 22.8°F-5.1°C 41% 9.0 mph W14.5 kmh W 12.5 mph20.1 kmh 24.72 in837.1 mb 0.00 in0.0 mm 0.00 in/hr0.0 mm/hr 0.00 in0.0 mm
02:57 PM 45.1°F7.3°C 22.3°F-5.4°C 40% 8.0 mph WSW12.9 kmh WSW 18.6 mph29.9 kmh 24.72 in837.1 mb 0.00 in0.0 mm 0.00 in/hr0.0 mm/hr 0.00 in0.0 mm
03:02 PM 45.0°F7.2°C 20.8°F-6.2°C 38% 10.0 mph WSW16.1 kmh WSW 14.3 mph23.0 kmh 24.72 in837.1 mb 0.00 in0.0 mm 0.00 in/hr0.0 mm/hr 0.00 in0.0 mm
03:07 PM 44.2°F6.8°C 18.3°F-7.6°C 35% 12.0 mph SW19.3 kmh SW 24.2 mph38.9 kmh 24.72 in837.1 mb 0.00 in0.0 mm 0.00 in/hr0.0 mm/hr 0.00 in0.0 mm
03:12 PM 44.2°F6.8°C 15.6°F-9.1°C 31% 13.0 mph SW20.9 kmh SW 25.7 mph41.4 kmh 24.72 in837.1 mb 0.00 in0.0 mm 0.00 in/hr0.0 mm/hr 0.00 in0.0 mm
03:17 PM 43.5°F6.4°C 15.6°F-9.1°C 32% 14.0 mph WSW22.5 kmh WSW 22.8 mph36.7 kmh 24.72 in837.1 mb 0.00 in0.0 mm 0.00 in/hr0.0 mm/hr 0.00 in0.0 mm
03:22 PM 43.0°F6.1°C 15.1°F-9.4°C 32% 15.0 mph SW24.1 kmh SW 23.7 mph38.1 kmh 24.72 in837.1 mb 0.00 in0.0 mm 0.00 in/hr0.0 mm/hr 0.00 in0.0 mm
03:27 PM 43.0°F6.1°C 14.4°F-9.8°C 31% 15.0 mph SW24.1 kmh SW 21.9 mph35.2 kmh 24.72 in837.1 mb 0.00 in0.0 mm 0.00 in/hr0.0 mm/hr 0.00 in0.0 mm
03:32 PM 43.5°F6.4°C 14.9°F-9.5°C 31% 13.0 mph SW20.9 kmh SW 19.9 mph32.0 kmh 24.75 in838.1 mb 0.00 in0.0 mm 0.00 in/hr0.0 mm/hr 0.00 in0.0 mm
03:37 PM 44.2°F6.8°C 15.6°F-9.1°C 31% 11.0 mph SW17.7 kmh SW 18.1 mph29.1 kmh 24.75 in838.1 mb 0.00 in0.0 mm 0.00 in/hr0.0 mm/hr 0.00 in0.0 mm
03:42 PM 43.7°F6.5°C 14.4°F-9.8°C 30% 11.0 mph SW17.7 kmh SW 18.1 mph29.1 kmh 24.75 in838.1 mb 0.00 in0.0 mm 0.00 in/hr0.0 mm/hr 0.00 in0.0 mm
03:47 PM 43.0°F6.1°C 13.6°F-10.2°C 30% 11.0 mph WSW17.7 kmh WSW 20.1 mph32.3 kmh 24.75 in838.1 mb 0.00 in0.0 mm 0.00 in/hr0.0 mm/hr 0.00 in0.0 mm
03:52 PM 42.6°F5.9°C 14.2°F-9.9°C 31% 11.0 mph WSW17.7 kmh WSW 19.5 mph31.4 kmh 24.75 in838.1 mb 0.00 in0.0 mm 0.00 in/hr0.0 mm/hr 0.00 in0.0 mm
03:57 PM 42.1°F5.6°C 13.6°F-10.2°C 31% 11.0 mph WSW17.7 kmh WSW 19.5 mph31.4 kmh 24.75 in838.1 mb 0.00 in0.0 mm 0.00 in/hr0.0 mm/hr 0.00 in0.0 mm
04:02 PM 41.9°F5.5°C 14.2°F-9.9°C 32% 12.0 mph WSW19.3 kmh WSW 19.5 mph31.4 kmh 24.77 in838.8 mb 0.00 in0.0 mm 0.00 in/hr0.0 mm/hr 0.00 in0.0 mm
04:07 PM 42.1°F5.6°C 14.4°F-9.8°C 32% 11.0 mph WSW17.7 kmh WSW 17.2 mph27.7 kmh 24.77 in838.8 mb 0.00 in0.0 mm 0.00 in/hr0.0 mm/hr 0.00 in0.0 mm
04:12 PM 41.7°F5.4°C 13.3°F-10.4°C 31% 8.0 mph SW12.9 kmh SW 11.6 mph18.7 kmh 24.77 in838.8 mb 0.00 in0.0 mm 0.00 in/hr0.0 mm/hr 0.00 in0.0 mm
04:17 PM 41.5°F5.3°C 13.1°F-10.5°C 31% 6.0 mph SW9.7 kmh SW 11.6 mph18.7 kmh 24.77 in838.8 mb 0.00 in0.0 mm 0.00 in/hr0.0 mm/hr 0.00 in0.0 mm
04:22 PM 41.4°F5.2°C 13.1°F-10.5°C 31% 9.0 mph W14.5 kmh W 21.0 mph33.8 kmh 24.77 in838.8 mb 0.00 in0.0 mm 0.00 in/hr0.0 mm/hr 0.00 in0.0 mm
04:27 PM 41.4°F5.2°C 12.2°F-11.0°C 30% 12.0 mph W19.3 kmh W 21.9 mph35.2 kmh 24.77 in838.8 mb 0.00 in0.0 mm 0.00 in/hr0.0 mm/hr 0.00 in0.0 mm
04:32 PM 41.0°F5.0°C 12.0°F-11.1°C 30% 11.0 mph WSW17.7 kmh WSW 16.3 mph26.2 kmh 24.77 in838.8 mb 0.00 in0.0 mm 0.00 in/hr0.0 mm/hr 0.00 in0.0 mm
04:37 PM 40.8°F4.9°C 12.6°F-10.8°C 31% 8.0 mph SW12.9 kmh SW 14.3 mph23.0 kmh 24.77 in838.8 mb 0.00 in0.0 mm 0.00 in/hr0.0 mm/hr 0.00 in0.0 mm
04:42 PM 40.6°F4.8°C 12.4°F-10.9°C 31% 9.0 mph SW14.5 kmh SW 15.2 mph24.5 kmh 24.77 in838.8 mb 0.00 in0.0 mm 0.00 in/hr0.0 mm/hr 0.00 in0.0 mm
04:47 PM 40.6°F4.8°C 11.7°F-11.3°C 30% 10.0 mph SW16.1 kmh SW 14.8 mph23.8 kmh 24.77 in838.8 mb 0.00 in0.0 mm 0.00 in/hr0.0 mm/hr 0.00 in0.0 mm
04:52 PM 40.3°F4.6°C 12.0°F-11.1°C 31% 7.0 mph SW11.3 kmh SW 10.1 mph16.3 kmh 24.77 in838.8 mb 0.00 in0.0 mm 0.00 in/hr0.0 mm/hr 0.00 in0.0 mm
04:57 PM 39.7°F4.3°C 13.1°F-10.5°C 33% 5.0 mph SSW8.0 kmh SSW 7.4 mph11.9 kmh 24.77 in838.8 mb 0.00 in0.0 mm 0.00 in/hr0.0 mm/hr 0.00 in0.0 mm
05:02 PM 39.7°F4.3°C 13.1°F-10.5°C 33% 4.0 mph S6.4 kmh S 8.7 mph14.0 kmh 24.80 in839.8 mb 0.00 in0.0 mm 0.00 in/hr0.0 mm/hr 0.00 in0.0 mm
05:07 PM 39.7°F4.3°C 13.1°F-10.5°C 33% 3.0 mph SSW4.8 kmh SSW 6.3 mph10.1 kmh 24.80 in839.8 mb 0.00 in0.0 mm 0.00 in/hr0.0 mm/hr 0.00 in0.0 mm
05:12 PM 39.4°F4.1°C 14.0°F-10.0°C 35% 2.0 mph SSW3.2 kmh SSW 4.5 mph7.2 kmh 24.80 in839.8 mb 0.00 in0.0 mm 0.00 in/hr0.0 mm/hr 0.00 in0.0 mm
05:17 PM 39.0°F3.9°C 13.6°F-10.2°C 35% 2.0 mph S3.2 kmh S 5.8 mph9.3 kmh 24.80 in839.8 mb 0.00 in0.0 mm 0.00 in/hr0.0 mm/hr 0.00 in0.0 mm
05:22 PM 40.1°F4.5°C 11.1°F-11.6°C 30% 4.0 mph SW6.4 kmh SW 13.0 mph20.9 kmh 24.80 in839.8 mb 0.00 in0.0 mm 0.00 in/hr0.0 mm/hr 0.00 in0.0 mm
05:27 PM 40.1°F4.5°C 10.4°F-12.0°C 29% 6.0 mph WSW9.7 kmh WSW 11.0 mph17.7 kmh 24.80 in839.8 mb 0.00 in0.0 mm 0.00 in/hr0.0 mm/hr 0.00 in0.0 mm
05:32 PM 40.3°F4.6°C 9.9°F-12.3°C 28% 7.0 mph WSW11.3 kmh WSW 11.0 mph17.7 kmh 24.80 in839.8 mb 0.00 in0.0 mm 0.00 in/hr0.0 mm/hr 0.00 in0.0 mm
05:37 PM 40.3°F4.6°C 10.6°F-11.9°C 29% 6.0 mph WSW9.7 kmh WSW 11.6 mph18.7 kmh 24.80 in839.8 mb 0.00 in0.0 mm 0.00 in/hr0.0 mm/hr 0.00 in0.0 mm
05:42 PM 40.1°F4.5°C 10.4°F-12.0°C 29% 7.0 mph W11.3 kmh W 13.0 mph20.9 kmh 24.80 in839.8 mb 0.00 in0.0 mm 0.00 in/hr0.0 mm/hr 0.00 in0.0 mm
05:47 PM 39.7°F4.3°C 10.0°F-12.2°C 29% 8.0 mph WNW12.9 kmh WNW 13.0 mph20.9 kmh 24.83 in840.8 mb 0.00 in0.0 mm 0.00 in/hr0.0 mm/hr 0.00 in0.0 mm
05:52 PM 39.7°F4.3°C 9.3°F-12.6°C 28% 9.0 mph WNW14.5 kmh WNW 14.3 mph23.0 kmh 24.83 in840.8 mb 0.00 in0.0 mm 0.00 in/hr0.0 mm/hr 0.00 in0.0 mm
05:57 PM 39.6°F4.2°C 9.1°F-12.7°C 28% 9.0 mph NW14.5 kmh NW 17.2 mph27.7 kmh 24.83 in840.8 mb 0.00 in0.0 mm 0.00 in/hr0.0 mm/hr 0.00 in0.0 mm
06:02 PM 39.2°F4.0°C 9.7°F-12.4°C 29% 8.0 mph NW12.9 kmh NW 11.0 mph17.7 kmh 24.83 in840.8 mb 0.00 in0.0 mm 0.00 in/hr0.0 mm/hr 0.00 in0.0 mm
06:07 PM 38.8°F3.8°C 9.3°F-12.6°C 29% 6.0 mph W9.7 kmh W 9.6 mph15.4 kmh 24.83 in840.8 mb 0.00 in0.0 mm 0.00 in/hr0.0 mm/hr 0.00 in0.0 mm
06:12 PM 38.5°F3.6°C 9.0°F-12.8°C 29% 4.0 mph WSW6.4 kmh WSW 8.3 mph13.4 kmh 24.83 in840.8 mb 0.00 in0.0 mm 0.00 in/hr0.0 mm/hr 0.00 in0.0 mm
06:17 PM 38.7°F3.7°C 9.1°F-12.7°C 29% 6.0 mph WNW9.7 kmh WNW 10.1 mph16.3 kmh 24.83 in840.8 mb 0.00 in0.0 mm 0.00 in/hr0.0 mm/hr 0.00 in0.0 mm
06:22 PM 38.5°F3.6°C 9.0°F-12.8°C 29% 7.0 mph WNW11.3 kmh WNW 11.6 mph18.7 kmh 24.83 in840.8 mb 0.00 in0.0 mm 0.00 in/hr0.0 mm/hr 0.00 in0.0 mm
06:27 PM 38.5°F3.6°C 9.0°F-12.8°C 29% 8.0 mph WNW12.9 kmh WNW 12.5 mph20.1 kmh 24.83 in840.8 mb 0.00 in0.0 mm 0.00 in/hr0.0 mm/hr 0.00 in0.0 mm
06:32 PM 38.3°F3.5°C 9.7°F-12.4°C 30% 8.0 mph W12.9 kmh W 11.0 mph17.7 kmh 24.86 in841.9 mb 0.00 in0.0 mm 0.00 in/hr0.0 mm/hr 0.00 in0.0 mm
06:37 PM 38.7°F3.7°C 8.4°F-13.1°C 28% 6.0 mph WSW9.7 kmh WSW 9.6 mph15.4 kmh 24.86 in841.9 mb 0.00 in0.0 mm 0.00 in/hr0.0 mm/hr 0.00 in0.0 mm
06:42 PM 38.5°F3.6°C 8.2°F-13.2°C 28% 6.0 mph SW9.7 kmh SW 12.5 mph20.1 kmh 24.86 in841.9 mb 0.00 in0.0 mm 0.00 in/hr0.0 mm/hr 0.00 in0.0 mm
06:47 PM 38.5°F3.6°C 6.6°F-14.1°C 26% 6.0 mph SW9.7 kmh SW 8.7 mph14.0 kmh 24.86 in841.9 mb 0.00 in0.0 mm 0.00 in/hr0.0 mm/hr 0.00 in0.0 mm
06:52 PM 38.1°F3.4°C 8.8°F-12.9°C 29% 5.0 mph SW8.0 kmh SW 11.0 mph17.7 kmh 24.86 in841.9 mb 0.00 in0.0 mm 0.00 in/hr0.0 mm/hr 0.00 in0.0 mm
06:57 PM 38.1°F3.4°C 6.3°F-14.3°C 26% 5.0 mph SW8.0 kmh SW 12.1 mph19.5 kmh 24.86 in841.9 mb 0.00 in0.0 mm 0.00 in/hr0.0 mm/hr 0.00 in0.0 mm
07:02 PM 37.9°F3.3°C 8.6°F-13.0°C 29% 6.0 mph SW9.7 kmh SW 11.2 mph18.0 kmh 24.86 in841.9 mb 0.00 in0.0 mm 0.00 in/hr0.0 mm/hr 0.00 in0.0 mm
07:07 PM 38.1°F3.4°C 6.3°F-14.3°C 26% 7.0 mph SW11.3 kmh SW 13.0 mph20.9 kmh 24.86 in841.9 mb 0.00 in0.0 mm 0.00 in/hr0.0 mm/hr 0.00 in0.0 mm
07:12 PM 37.6°F3.1°C 8.2°F-13.2°C 29% 6.0 mph SW9.7 kmh SW 6.3 mph10.1 kmh 24.86 in841.9 mb 0.00 in0.0 mm 0.00 in/hr0.0 mm/hr 0.00 in0.0 mm
07:18 PM 37.4°F3.0°C 8.1°F-13.3°C 29% 4.0 mph SW6.4 kmh SW 7.8 mph12.6 kmh 24.86 in841.9 mb 0.00 in0.0 mm 0.00 in/hr0.0 mm/hr 0.00 in0.0 mm
07:23 PM 37.0°F2.8°C 7.7°F-13.5°C 29% 4.0 mph S6.4 kmh S 5.4 mph8.7 kmh 24.86 in841.9 mb 0.00 in0.0 mm 0.00 in/hr0.0 mm/hr 0.00 in0.0 mm
07:28 PM 36.3°F2.4°C 7.9°F-13.4°C 30% 3.0 mph SSE4.8 kmh SSE 7.4 mph11.9 kmh 24.86 in841.9 mb 0.00 in0.0 mm 0.00 in/hr0.0 mm/hr 0.00 in0.0 mm
07:33 PM 36.5°F2.5°C 8.1°F-13.3°C 30% 4.0 mph S6.4 kmh S 9.2 mph14.8 kmh 24.89 in842.9 mb 0.00 in0.0 mm 0.00 in/hr0.0 mm/hr 0.00 in0.0 mm
07:38 PM 36.3°F2.4°C 7.9°F-13.4°C 30% 4.0 mph SSW6.4 kmh SSW 5.8 mph9.3 kmh 24.89 in842.9 mb 0.00 in0.0 mm 0.00 in/hr0.0 mm/hr 0.00 in0.0 mm
07:43 PM 36.3°F2.4°C 7.9°F-13.4°C 30% 4.0 mph S6.4 kmh S 7.8 mph12.6 kmh 24.89 in842.9 mb 0.00 in0.0 mm 0.00 in/hr0.0 mm/hr 0.00 in0.0 mm
07:48 PM 36.3°F2.4°C 7.9°F-13.4°C 30% 4.0 mph S6.4 kmh S 6.9 mph11.1 kmh 24.89 in842.9 mb 0.00 in0.0 mm 0.00 in/hr0.0 mm/hr 0.00 in0.0 mm
07:53 PM 36.0°F2.2°C 8.2°F-13.2°C 31% 3.0 mph SSW4.8 kmh SSW 6.7 mph10.8 kmh 24.89 in842.9 mb 0.00 in0.0 mm 0.00 in/hr0.0 mm/hr 0.00 in0.0 mm
07:58 PM 36.1°F2.3°C 7.7°F-13.5°C 30% 3.0 mph SW4.8 kmh SW 5.8 mph9.3 kmh 24.89 in842.9 mb 0.00 in0.0 mm 0.00 in/hr0.0 mm/hr 0.00 in0.0 mm
08:03 PM 36.1°F2.3°C 7.7°F-13.5°C 30% 3.0 mph SW4.8 kmh SW 4.5 mph7.2 kmh 24.89 in842.9 mb 0.00 in0.0 mm 0.00 in/hr0.0 mm/hr 0.00 in0.0 mm
08:08 PM 35.8°F2.1°C 8.1°F-13.3°C 31% 3.0 mph SW4.8 kmh SW 4.5 mph7.2 kmh 24.89 in842.9 mb 0.00 in0.0 mm 0.00 in/hr0.0 mm/hr 0.00 in0.0 mm
08:13 PM 35.6°F2.0°C 8.6°F-13.0°C 32% 2.0 mph SW3.2 kmh SW 4.9 mph7.9 kmh 24.89 in842.9 mb 0.00 in0.0 mm 0.00 in/hr0.0 mm/hr 0.00 in0.0 mm
08:18 PM 36.3°F2.4°C 8.6°F-13.0°C 31% 3.0 mph WSW4.8 kmh WSW 6.3 mph10.1 kmh 24.89 in842.9 mb 0.00 in0.0 mm 0.00 in/hr0.0 mm/hr 0.00 in0.0 mm
08:23 PM 37.0°F2.8°C 7.7°F-13.5°C 29% 4.0 mph WSW6.4 kmh WSW 8.7 mph14.0 kmh 24.89 in842.9 mb 0.00 in0.0 mm 0.00 in/hr0.0 mm/hr 0.00 in0.0 mm
08:28 PM 36.5°F2.5°C 8.1°F-13.3°C 30% 4.0 mph WSW6.4 kmh WSW 4.5 mph7.2 kmh 24.89 in842.9 mb 0.00 in0.0 mm 0.00 in/hr0.0 mm/hr 0.00 in0.0 mm
08:33 PM 36.0°F2.2°C 8.2°F-13.2°C 31% 3.0 mph SW4.8 kmh SW 4.5 mph7.2 kmh 24.89 in842.9 mb 0.00 in0.0 mm 0.00 in/hr0.0 mm/hr 0.00 in0.0 mm
08:38 PM 36.0°F2.2°C 9.0°F-12.8°C 32% 3.0 mph SSW4.8 kmh SSW 5.4 mph8.7 kmh 24.89 in842.9 mb 0.00 in0.0 mm 0.00 in/hr0.0 mm/hr 0.00 in0.0 mm
08:43 PM 36.1°F2.3°C 8.4°F-13.1°C 31% 3.0 mph SE4.8 kmh SE 4.9 mph7.9 kmh 24.89 in842.9 mb 0.00 in0.0 mm 0.00 in/hr0.0 mm/hr 0.00 in0.0 mm
08:48 PM 35.8°F2.1°C 8.8°F-12.9°C 32% 2.0 mph SE3.2 kmh SE 4.5 mph7.2 kmh 24.89 in842.9 mb 0.00 in0.0 mm 0.00 in/hr0.0 mm/hr 0.00 in0.0 mm
08:53 PM 35.8°F2.1°C 9.5°F-12.5°C 33% 2.0 mph SE3.2 kmh SE 5.4 mph8.7 kmh 24.89 in842.9 mb 0.00 in0.0 mm 0.00 in/hr0.0 mm/hr 0.00 in0.0 mm
08:58 PM 36.0°F2.2°C 9.0°F-12.8°C 32% 3.0 mph SSE4.8 kmh SSE 5.4 mph8.7 kmh 24.92 in843.9 mb 0.00 in0.0 mm 0.00 in/hr0.0 mm/hr 0.00 in0.0 mm
09:03 PM 35.6°F2.0°C 10.0°F-12.2°C 34% 2.0 mph SSE3.2 kmh SSE 5.8 mph9.3 kmh 24.92 in843.9 mb 0.00 in0.0 mm 0.00 in/hr0.0 mm/hr 0.00 in0.0 mm
09:08 PM 35.8°F2.1°C 9.5°F-12.5°C 33% 2.0 mph SSE3.2 kmh SSE 6.3 mph10.1 kmh 24.92 in843.9 mb 0.00 in0.0 mm 0.00 in/hr0.0 mm/hr 0.00 in0.0 mm
09:13 PM 35.8°F2.1°C 9.5°F-12.5°C 33% 2.0 mph SSE3.2 kmh SSE 5.4 mph8.7 kmh 24.92 in843.9 mb 0.00 in0.0 mm 0.00 in/hr0.0 mm/hr 0.00 in0.0 mm
09:18 PM 35.6°F2.0°C 10.0°F-12.2°C 34% 3.0 mph S4.8 kmh S 5.8 mph9.3 kmh 24.92 in843.9 mb 0.00 in0.0 mm 0.00 in/hr0.0 mm/hr 0.00 in0.0 mm
09:23 PM 35.8°F2.1°C 10.2°F-12.1°C 34% 3.0 mph S4.8 kmh S 5.4 mph8.7 kmh 24.92 in843.9 mb 0.00 in0.0 mm 0.00 in/hr0.0 mm/hr 0.00 in0.0 mm
09:28 PM 36.3°F2.4°C 9.3°F-12.6°C 32% 4.0 mph S6.4 kmh S 8.3 mph13.4 kmh 24.92 in843.9 mb 0.00 in0.0 mm 0.00 in/hr0.0 mm/hr 0.00 in0.0 mm
09:33 PM 36.3°F2.4°C 9.3°F-12.6°C 32% 5.0 mph SSW8.0 kmh SSW 5.8 mph9.3 kmh 24.92 in843.9 mb 0.00 in0.0 mm 0.00 in/hr0.0 mm/hr 0.00 in0.0 mm
09:38 PM 36.0°F2.2°C 9.7°F-12.4°C 33% 4.0 mph SSW6.4 kmh SSW 6.9 mph11.1 kmh 24.92 in843.9 mb 0.00 in0.0 mm 0.00 in/hr0.0 mm/hr 0.00 in0.0 mm
09:43 PM 35.8°F2.1°C 10.2°F-12.1°C 34% 5.0 mph SSW8.0 kmh SSW 6.9 mph11.1 kmh 24.92 in843.9 mb 0.00 in0.0 mm 0.00 in/hr0.0 mm/hr 0.00 in0.0 mm
09:48 PM 36.1°F2.3°C 9.1°F-12.7°C 32% 6.0 mph SSW9.7 kmh SSW 9.6 mph15.4 kmh 24.92 in843.9 mb 0.00 in0.0 mm 0.00 in/hr0.0 mm/hr 0.00 in0.0 mm
09:53 PM 36.5°F2.5°C 8.1°F-13.3°C 30% 6.0 mph SW9.7 kmh SW 9.2 mph14.8 kmh 24.92 in843.9 mb 0.00 in0.0 mm 0.00 in/hr0.0 mm/hr 0.00 in0.0 mm
09:58 PM 36.9°F2.7°C 7.7°F-13.5°C 29% 6.0 mph SW9.7 kmh SW 10.1 mph16.3 kmh 24.92 in843.9 mb 0.00 in0.0 mm 0.00 in/hr0.0 mm/hr 0.00 in0.0 mm
10:03 PM 37.0°F2.8°C 7.7°F-13.5°C 29% 6.0 mph SW9.7 kmh SW 11.0 mph17.7 kmh 24.92 in843.9 mb 0.00 in0.0 mm 0.00 in/hr0.0 mm/hr 0.00 in0.0 mm
10:08 PM 37.0°F2.8°C 7.7°F-13.5°C 29% 7.0 mph SW11.3 kmh SW 13.0 mph20.9 kmh 24.92 in843.9 mb 0.00 in0.0 mm 0.00 in/hr0.0 mm/hr 0.00 in0.0 mm
10:13 PM 37.0°F2.8°C 7.7°F-13.5°C 29% 7.0 mph SW11.3 kmh SW 9.6 mph15.4 kmh 24.92 in843.9 mb 0.00 in0.0 mm 0.00 in/hr0.0 mm/hr 0.00 in0.0 mm
10:18 PM 37.0°F2.8°C 7.7°F-13.5°C 29% 7.0 mph SW11.3 kmh SW 11.2 mph18.0 kmh 24.92 in843.9 mb 0.00 in0.0 mm 0.00 in/hr0.0 mm/hr 0.00 in0.0 mm
10:23 PM 37.2°F2.9°C 5.5°F-14.7°C 26% 7.0 mph SW11.3 kmh SW 12.5 mph20.1 kmh 24.92 in843.9 mb 0.00 in0.0 mm 0.00 in/hr0.0 mm/hr 0.00 in0.0 mm
10:28 PM 37.0°F2.8°C 7.7°F-13.5°C 29% 8.0 mph SW12.9 kmh SW 11.2 mph18.0 kmh 24.92 in843.9 mb 0.00 in0.0 mm 0.00 in/hr0.0 mm/hr 0.00 in0.0 mm
10:33 PM 37.0°F2.8°C 5.4°F-14.8°C 26% 8.0 mph WSW12.9 kmh WSW 13.9 mph22.4 kmh 24.92 in843.9 mb 0.00 in0.0 mm 0.00 in/hr0.0 mm/hr 0.00 in0.0 mm
10:38 PM 37.0°F2.8°C 5.4°F-14.8°C 26% 7.0 mph SW11.3 kmh SW 10.5 mph16.9 kmh 24.92 in843.9 mb 0.00 in0.0 mm 0.00 in/hr0.0 mm/hr 0.00 in0.0 mm
10:43 PM 37.0°F2.8°C 5.4°F-14.8°C 26% 7.0 mph SW11.3 kmh SW 13.4 mph21.6 kmh 24.92 in843.9 mb 0.00 in0.0 mm 0.00 in/hr0.0 mm/hr 0.00 in0.0 mm
10:48 PM 37.0°F2.8°C 5.4°F-14.8°C 26% 8.0 mph SW12.9 kmh SW 13.0 mph20.9 kmh 24.92 in843.9 mb 0.00 in0.0 mm 0.00 in/hr0.0 mm/hr 0.00 in0.0 mm
10:53 PM 37.0°F2.8°C 5.4°F-14.8°C 26% 9.0 mph SW14.5 kmh SW 15.2 mph24.5 kmh 24.92 in843.9 mb 0.00 in0.0 mm 0.00 in/hr0.0 mm/hr 0.00 in0.0 mm
10:58 PM 37.0°F2.8°C 5.4°F-14.8°C 26% 10.0 mph SW16.1 kmh SW 16.8 mph27.0 kmh 24.92 in843.9 mb 0.00 in0.0 mm 0.00 in/hr0.0 mm/hr 0.00 in0.0 mm
11:03 PM 37.0°F2.8°C 5.4°F-14.8°C 26% 10.0 mph SW16.1 kmh SW 17.2 mph27.7 kmh 24.92 in843.9 mb 0.00 in0.0 mm 0.00 in/hr0.0 mm/hr 0.00 in0.0 mm
11:08 PM 37.0°F2.8°C 5.4°F-14.8°C 26% 10.0 mph SW16.1 kmh SW 15.4 mph24.8 kmh 24.92 in843.9 mb 0.00 in0.0 mm 0.00 in/hr0.0 mm/hr 0.00 in0.0 mm
11:13 PM 37.0°F2.8°C 3.6°F-15.8°C 24% 10.0 mph SW16.1 kmh SW 13.9 mph22.4 kmh 24.92 in843.9 mb 0.00 in0.0 mm 0.00 in/hr0.0 mm/hr 0.00 in0.0 mm
11:18 PM 36.9°F2.7°C 5.2°F-14.9°C 26% 9.0 mph SW14.5 kmh SW 13.9 mph22.4 kmh 24.92 in843.9 mb 0.00 in0.0 mm 0.00 in/hr0.0 mm/hr 0.00 in0.0 mm
11:23 PM 36.9°F2.7°C 5.2°F-14.9°C 26% 8.0 mph SW12.9 kmh SW 15.2 mph24.5 kmh 24.92 in843.9 mb 0.00 in0.0 mm 0.00 in/hr0.0 mm/hr 0.00 in0.0 mm
11:28 PM 36.9°F2.7°C 5.2°F-14.9°C 26% 8.0 mph SW12.9 kmh SW 13.4 mph21.6 kmh 24.92 in843.9 mb 0.00 in0.0 mm 0.00 in/hr0.0 mm/hr 0.00 in0.0 mm
11:33 PM 36.9°F2.7°C 5.2°F-14.9°C 26% 9.0 mph SW14.5 kmh SW 14.8 mph23.8 kmh 24.92 in843.9 mb 0.00 in0.0 mm 0.00 in/hr0.0 mm/hr 0.00 in0.0 mm
11:38 PM 36.9°F2.7°C 5.2°F-14.9°C 26% 9.0 mph SW14.5 kmh SW 16.3 mph26.2 kmh 24.92 in843.9 mb 0.00 in0.0 mm 0.00 in/hr0.0 mm/hr 0.00 in0.0 mm
11:43 PM 36.9°F2.7°C 7.7°F-13.5°C 29% 9.0 mph SW14.5 kmh SW 13.0 mph20.9 kmh 24.92 in843.9 mb 0.00 in0.0 mm 0.00 in/hr0.0 mm/hr 0.00 in0.0 mm
11:48 PM 36.9°F2.7°C 7.7°F-13.5°C 29% 8.0 mph SW12.9 kmh SW 13.0 mph20.9 kmh 24.92 in843.9 mb 0.00 in0.0 mm 0.00 in/hr0.0 mm/hr 0.00 in0.0 mm
11:53 PM 36.9°F2.7°C 5.2°F-14.9°C 26% 8.0 mph SW12.9 kmh SW 11.2 mph18.0 kmh 24.92 in843.9 mb 0.00 in0.0 mm 0.00 in/hr0.0 mm/hr 0.00 in0.0 mm
11:58 PM 36.9°F2.7°C 7.7°F-13.5°C 29% 7.0 mph SW11.3 kmh SW 12.5 mph20.1 kmh 24.92 in843.9 mb 0.00 in0.0 mm 0.00 in/hr0.0 mm/hr 0.00 in0.0 mm